Time;durP1;ratioP1;P1;durP2;ratioP2;P2;SDS_P1;SDS_P2;PMS_P1;PMS_P2;Temp;Humidity;BMP_temperature;BMP_pressure;BME280_temperature;BME280_humidity;BME280_pressure;Samples;Min_cycle;Max_cycle;Signal;HPM_P1;HPM_P2
2022/08/26 00:02:00;;;;;;;7.47;4.15;;;22.40;91.60;;;;;;5050459;28;20022;-82
2022/08/26 00:04:26;;;;;;;5.55;3.72;;;;;;;;;;5064883;28;20099;-84
2022/08/26 00:06:55;;;;;;;6.82;3.70;;;22.30;91.90;;;;;;5051687;28;20037;-83
2022/08/26 00:09:21;;;;;;;6.93;3.85;;;22.30;92.10;;;;;;5058215;28;20029;-82
2022/08/26 00:11:47;;;;;;;5.40;3.78;;;22.20;92.20;;;;;;5052147;28;20025;-84
2022/08/26 00:14:14;;;;;;;6.90;4.22;;;22.20;92.40;;;;;;5051032;28;20186;-83
2022/08/26 00:16:40;;;;;;;5.20;3.83;;;;;;;;;;5065752;28;20027;-84
2022/08/26 00:19:06;;;;;;;5.90;4.47;;;;;;;;;;5079477;28;20020;-82
2022/08/26 00:21:39;;;;;;;7.72;4.45;;;22.00;92.80;;;;;;5078335;28;20035;-86
2022/08/26 00:24:05;;;;;;;10.15;4.70;;;;;;;;;;5042006;28;20054;-82
2022/08/26 00:26:33;;;;;;;5.50;4.25;;;;;;;;;;5042886;28;20601;-83
2022/08/26 00:28:59;;;;;;;8.93;4.20;;;;;;;;;;5054474;28;20052;-83
2022/08/26 00:31:25;;;;;;;5.43;4.28;;;;;;;;;;5043868;28;20024;-81
2022/08/26 00:33:51;;;;;;;7.00;4.25;;;;;;;;;;5060582;28;20025;-83
2022/08/26 00:36:17;;;;;;;7.00;4.50;;;;;;;;;;5056991;28;20437;-82
2022/08/26 00:38:43;;;;;;;6.28;3.90;;;21.90;93.50;;;;;;5044644;28;20029;-85
2022/08/26 00:41:09;;;;;;;6.13;4.35;;;;;;;;;;5056552;28;20024;-83
2022/08/26 00:43:35;;;;;;;5.97;4.50;;;21.90;93.80;;;;;;5062612;28;20021;-83
2022/08/26 00:46:28;;;;;;;7.75;4.10;;;21.90;94.00;;;;;;5057377;28;20017;-83
2022/08/26 00:49:03;;;;;;;9.38;4.82;;;21.90;94.00;;;;;;5040348;28;20041;-83
2022/08/26 00:51:29;;;;;;;7.15;4.65;;;21.90;94.00;;;;;;5055860;28;20394;-82
2022/08/26 00:54:04;;;;;;;6.47;3.88;;;21.90;94.20;;;;;;5051228;28;20036;-83
2022/08/26 00:56:34;;;;;;;7.18;4.53;;;21.80;94.30;;;;;;5072990;28;20025;-84
2022/08/26 00:59:03;;;;;;;6.63;4.30;;;21.80;94.40;;;;;;5075322;28;20048;-83
2022/08/26 01:01:29;;;;;;;7.47;4.28;;;;;;;;;;5076127;28;20016;-82
2022/08/26 01:03:56;;;;;;;7.63;4.50;;;;;;;;;;5064483;28;20117;-84
2022/08/26 01:06:23;;;;;;;6.68;4.45;;;21.80;94.70;;;;;;5054460;28;20312;-82
2022/08/26 01:08:50;;;;;;;6.75;4.50;;;21.70;94.70;;;;;;5047576;28;20083;-83
2022/08/26 01:11:15;;;;;;;7.35;4.85;;;21.70;95.50;;;;;;5051812;28;20056;-82
2022/08/26 01:13:41;;;;;;;9.15;4.47;;;21.60;95.70;;;;;;5063292;28;20032;-82
2022/08/26 01:16:11;;;;;;;6.32;4.38;;;21.60;95.40;;;;;;5059359;28;20025;-82
2022/08/26 01:18:40;;;;;;;11.50;4.90;;;21.60;95.50;;;;;;5045485;28;20032;-82
2022/08/26 01:21:38;;;;;;;5.10;4.03;;;21.60;95.70;;;;;;5060316;28;20033;-79
2022/08/26 01:24:04;;;;;;;6.82;4.50;;;21.60;95.90;;;;;;5043734;28;20029;-83
2022/08/26 01:26:40;;;;;;;7.57;3.70;;;21.60;95.80;;;;;;5062707;28;20041;-81
2022/08/26 01:29:08;;;;;;;8.18;4.90;;;21.60;96.00;;;;;;5062535;28;20113;-82
2022/08/26 01:31:40;;;;;;;7.03;4.43;;;21.60;96.00;;;;;;5042760;28;20384;-81
2022/08/26 01:34:12;;;;;;;7.20;4.18;;;21.50;96.10;;;;;;5053720;28;20032;-82
2022/08/26 01:36:39;;;;;;;11.30;4.95;;;21.50;96.30;;;;;;5043413;28;20029;-81
2022/08/26 01:39:05;;;;;;;8.70;4.60;;;21.40;96.30;;;;;;5059704;28;20102;-82
2022/08/26 01:41:32;;;;;;;8.77;4.32;;;21.40;96.50;;;;;;5056337;28;20021;-83
2022/08/26 01:43:59;;;;;;;5.75;4.20;;;21.30;96.70;;;;;;5066194;28;20021;-83
2022/08/26 01:46:27;;;;;;;5.82;4.25;;;21.40;96.80;;;;;;5051217;28;20028;-83
2022/08/26 01:48:55;;;;;;;6.65;4.47;;;21.30;97.00;;;;;;5069471;28;20048;-83
2022/08/26 01:51:24;;;;;;;6.28;4.30;;;21.30;97.00;;;;;;5047438;28;20021;-82
2022/08/26 01:53:50;;;;;;;6.05;4.38;;;;;;;;;;5045001;28;20499;-81
2022/08/26 01:56:16;;;;;;;5.75;4.28;;;;;;;;;;5068055;28;20048;-83
2022/08/26 01:58:46;;;;;;;6.22;4.30;;;21.20;97.60;;;;;;5062620;28;20036;-81
2022/08/26 02:01:12;;;;;;;6.68;4.70;;;;;;;;;;5062714;28;20017;-82
2022/08/26 02:03:50;;;;;;;7.05;4.72;;;21.10;97.90;;;;;;5072936;28;20510;-80
2022/08/26 02:06:18;;;;;;;19.40;8.10;;;21.10;98.10;;;;;;5061784;28;20025;-83
2022/08/26 02:08:47;;;;;;;9.93;5.97;;;21.00;98.30;;;;;;5044443;28;20029;-82
2022/08/26 02:11:14;;;;;;;7.47;5.28;;;21.10;98.30;;;;;;5056779;28;20033;-83
2022/08/26 02:13:45;;;;;;;8.60;4.20;;;21.10;98.30;;;;;;5059390;28;20040;-84
2022/08/26 02:16:14;;;;;;;6.43;4.20;;;21.20;98.40;;;;;;5045700;28;20487;-82
2022/08/26 02:18:42;;;;;;;6.88;4.35;;;21.20;98.40;;;;;;5059290;28;20037;-82
2022/08/26 02:21:10;;;;;;;6.72;4.30;;;21.10;98.40;;;;;;5045076;28;20021;-82
2022/08/26 02:23:36;;;;;;;5.45;4.15;;;;;;;;;;5059882;28;20043;-83
2022/08/26 02:26:09;;;;;;;7.88;4.70;;;21.10;98.70;;;;;;5061519;28;20033;-80
2022/08/26 02:28:44;;;;;;;6.00;4.43;;;21.10;98.80;;;;;;5048581;28;20036;-82
2022/08/26 02:31:10;;;;;;;5.35;4.40;;;;;;;;;;5066307;28;20032;-82
2022/08/26 02:33:36;;;;;;;6.43;4.40;;;;;;;;;;5056218;28;20029;-81
2022/08/26 02:36:02;;;;;;;5.93;4.30;;;;;;;;;;5057942;28;20021;-81
2022/08/26 02:38:28;;;;;;;7.47;4.53;;;;;;;;;;5062135;28;20033;-83
2022/08/26 02:40:54;;;;;;;6.57;5.07;;;;;;;;;;5058887;28;20116;-84
2022/08/26 02:43:20;;;;;;;7.32;4.53;;;;;;;;;;5041635;28;20032;-82
2022/08/26 02:45:46;;;;;;;6.32;5.07;;;;;;;;;;5055100;28;20022;-82
2022/08/26 02:48:15;;;;;;;8.15;4.68;;;20.90;99.90;;;;;;5063152;28;20040;-85
2022/08/26 02:50:41;;;;;;;5.97;4.38;;;;;;;;;;5071019;28;20035;-82
2022/08/26 02:53:07;;;;;;;8.52;4.38;;;20.90;99.90;;;;;;5051060;28;20025;-84
2022/08/26 02:55:33;;;;;;;7.53;4.38;;;;;;;;;;5053041;28;20029;-85
2022/08/26 02:58:00;;;;;;;6.68;4.72;;;;;;;;;;5063023;28;20495;-83
2022/08/26 03:00:26;;;;;;;6.35;4.53;;;;;;;;;;5065624;28;20044;-82
2022/08/26 03:02:52;;;;;;;7.57;4.93;;;;;;;;;;5053801;28;20024;-81
2022/08/26 03:05:20;;;;;;;6.13;4.65;;;;;;;;;;5060845;28;20108;-80
2022/08/26 03:07:47;;;;;;;11.25;4.82;;;;;;;;;;5072016;28;20027;-81
2022/08/26 03:10:13;;;;;;;5.28;4.43;;;20.70;99.90;;;;;;5080708;28;20040;-82
2022/08/26 03:12:39;;;;;;;5.65;4.25;;;;;;;;;;5046717;28;20025;-85
2022/08/26 03:15:06;;;;;;;5.63;4.57;;;20.70;99.90;;;;;;5063980;28;20423;-83
2022/08/26 03:17:32;;;;;;;7.07;5.00;;;;;;;;;;5064903;28;20032;-84
2022/08/26 03:19:58;;;;;;;5.57;4.38;;;;;;;;;;5061060;28;20021;-83
2022/08/26 03:22:24;;;;;;;5.55;4.40;;;20.60;99.90;;;;;;5062712;28;20024;-83
2022/08/26 03:24:50;;;;;;;6.90;4.80;;;20.40;99.90;;;;;;5048402;28;20021;-81
2022/08/26 03:27:16;;;;;;;6.80;4.93;;;20.50;99.90;;;;;;5053262;28;20023;-85
2022/08/26 03:32:25;;;;;;;6.72;4.70;;;20.50;99.90;;;;;;5069753;28;20092;-82
2022/08/26 03:34:51;;;;;;;7.82;4.45;;;20.50;99.90;;;;;;5054242;28;20033;-82
2022/08/26 03:37:17;;;;;;;9.88;5.10;;;20.40;99.90;;;;;;5062206;28;20083;-84
2022/08/26 03:39:43;;;;;;;7.07;5.43;;;20.40;99.90;;;;;;5048814;28;20036;-80
2022/08/26 03:42:08;;;;;;;6.45;4.82;;;20.40;99.90;;;;;;5073571;28;20020;-82
2022/08/26 03:44:35;;;;;;;9.30;5.10;;;20.40;99.90;;;;;;5070766;28;20032;-83
2022/08/26 03:47:01;;;;;;;6.97;4.55;;;20.40;99.90;;;;;;5076261;28;20025;-84
2022/08/26 03:49:27;;;;;;;9.40;5.00;;;;;;;;;;5067667;28;20021;-84
2022/08/26 03:51:53;;;;;;;8.85;5.47;;;20.30;99.90;;;;;;5062210;28;20052;-83
2022/08/26 03:54:18;;;;;;;11.32;4.72;;;20.40;99.90;;;;;;5052327;28;20029;-85
2022/08/26 03:56:44;;;;;;;7.72;4.78;;;20.30;99.90;;;;;;5054040;28;20170;-83
2022/08/26 03:59:10;;;;;;;7.15;4.80;;;;;;;;;;5046174;28;20039;-83
2022/08/26 04:01:35;;;;;;;7.10;5.13;;;20.30;99.90;;;;;;5064419;28;20045;-82
2022/08/26 04:04:02;;;;;;;7.18;5.22;;;20.20;99.90;;;;;;5064407;28;20056;-83
2022/08/26 04:06:42;;;;;;;7.22;4.97;;;20.20;99.90;;;;;;5043488;28;20041;-83
2022/08/26 04:09:10;;;;;;;7.15;5.25;;;20.20;99.90;;;;;;5050580;28;20055;-82
2022/08/26 04:11:38;;;;;;;8.18;4.90;;;20.20;99.90;;;;;;5054974;28;20082;-83
2022/08/26 04:14:06;;;;;;;6.68;4.50;;;20.10;99.90;;;;;;5066788;28;20048;-82
2022/08/26 04:16:32;;;;;;;5.97;4.55;;;;;;;;;;5058823;28;20033;-83
2022/08/26 04:18:58;;;;;;;6.80;4.88;;;20.10;99.90;;;;;;5068350;28;20050;-84
2022/08/26 04:21:25;;;;;;;9.35;5.30;;;20.00;99.90;;;;;;5054755;28;20385;-84
2022/08/26 04:23:51;;;;;;;7.38;5.30;;;;;;;;;;5067260;28;20032;-83
2022/08/26 04:26:19;;;;;;;6.60;4.90;;;19.90;99.90;;;;;;5068597;28;20431;-83
2022/08/26 04:28:45;;;;;;;6.50;4.78;;;19.90;99.90;;;;;;5053587;28;20024;-82
2022/08/26 04:31:13;;;;;;;6.93;4.82;;;19.90;99.90;;;;;;5064419;28;20048;-83
2022/08/26 04:33:39;;;;;;;6.78;4.70;;;19.80;99.90;;;;;;5053995;28;20098;-83
2022/08/26 04:36:05;;;;;;;7.53;5.20;;;;;;;;;;5054632;28;20025;-81
2022/08/26 04:38:32;;;;;;;7.93;5.22;;;19.80;99.90;;;;;;5061870;28;20028;-83
2022/08/26 04:40:57;;;;;;;12.13;4.97;;;19.80;99.90;;;;;;5064567;28;20080;-84
2022/08/26 04:43:29;;;;;;;7.63;4.72;;;19.70;99.90;;;;;;5066339;28;20024;-82
2022/08/26 04:45:58;;;;;;;11.27;5.63;;;19.80;99.90;;;;;;5060376;28;20024;-83
2022/08/26 04:48:25;;;;;;;5.57;4.20;;;;;;;;;;5053644;28;20047;-83
2022/08/26 04:50:51;;;;;;;6.47;4.70;;;;;;;;;;5072430;28;20028;-82
2022/08/26 04:53:17;;;;;;;8.93;5.00;;;;;;;;;;5075943;28;20060;-86
2022/08/26 04:55:43;;;;;;;7.82;5.22;;;;;;;;;;5077022;28;20032;-85
2022/08/26 04:58:09;;;;;;;6.85;4.90;;;;;;;;;;5068202;28;20041;-84
2022/08/26 05:00:35;;;;;;;9.02;4.80;;;;;;;;;;5076673;28;20036;-87
2022/08/26 05:03:01;;;;;;;6.18;4.95;;;;;;;;;;5071652;28;20021;-83
2022/08/26 05:05:27;;;;;;;6.90;4.93;;;19.80;99.90;;;;;;5060691;28;20023;-83
2022/08/26 05:07:52;;;;;;;9.18;5.57;;;19.80;99.90;;;;;;5059023;28;20025;-86
2022/08/26 05:10:18;;;;;;;7.68;5.25;;;20.00;99.90;;;;;;5062335;28;20110;-81
2022/08/26 05:12:43;;;;;;;8.82;5.43;;;19.80;99.90;;;;;;5044016;28;20379;-85
2022/08/26 05:15:09;;;;;;;9.45;5.78;;;19.80;99.90;;;;;;5044504;28;20036;-83
2022/08/26 05:17:38;;;;;;;10.13;5.72;;;19.90;99.90;;;;;;5043607;28;20039;-82
2022/08/26 05:20:05;;;;;;;9.23;5.97;;;20.00;99.90;;;;;;5038409;28;20052;-84
2022/08/26 05:22:30;;;;;;;9.25;5.82;;;20.00;99.90;;;;;;5059680;28;20568;-84
2022/08/26 05:24:56;;;;;;;8.25;6.22;;;20.00;99.90;;;;;;5061701;28;20025;-84
2022/08/26 05:27:22;;;;;;;11.20;6.45;;;;;;;;;;5043402;28;20025;-84
2022/08/26 05:29:48;;;;;;;8.60;5.70;;;20.00;99.90;;;;;;5056175;28;20028;-82
2022/08/26 05:32:14;;;;;;;7.82;5.60;;;;;;;;;;5064429;28;20051;-81
2022/08/26 05:34:40;;;;;;;8.63;5.85;;;;;;;;;;5063226;28;20035;-82
2022/08/26 05:37:06;;;;;;;11.30;5.90;;;;;;;;;;5059564;28;20029;-82
2022/08/26 05:39:32;;;;;;;9.20;5.57;;;20.20;99.90;;;;;;5063406;28;20059;-86
2022/08/26 05:41:58;;;;;;;9.73;6.15;;;;;;;;;;5063487;28;20466;-84
2022/08/26 05:44:24;;;;;;;9.27;5.60;;;;;;;;;;5071525;28;20021;-83
2022/08/26 05:46:50;;;;;;;12.05;5.68;;;;;;;;;;5068020;28;20075;-84
2022/08/26 05:49:16;;;;;;;8.30;5.88;;;20.30;99.90;;;;;;5064202;28;20029;-81
2022/08/26 05:51:43;;;;;;;9.65;5.85;;;20.40;99.90;;;;;;5062577;28;20040;-84
2022/08/26 05:54:10;;;;;;;9.02;5.65;;;20.40;99.90;;;;;;5046643;28;20029;-83
2022/08/26 05:56:36;;;;;;;10.98;6.13;;;20.40;99.90;;;;;;5061769;28;20036;-83
2022/08/26 05:59:01;;;;;;;9.10;5.32;;;20.40;99.90;;;;;;5058661;28;20029;-86
2022/08/26 06:01:28;;;;;;;11.40;5.88;;;20.50;99.90;;;;;;5051772;28;20071;-83
2022/08/26 06:04:00;;;;;;;13.02;5.60;;;20.50;99.90;;;;;;5036517;28;20138;-82
2022/08/26 06:06:29;;;;;;;10.25;5.75;;;20.70;99.90;;;;;;5037025;28;20014;-82
2022/08/26 06:08:54;;;;;;;10.98;5.95;;;20.70;99.90;;;;;;5041910;28;20375;-84
2022/08/26 06:11:25;;;;;;;10.88;6.45;;;20.90;99.90;;;;;;5055572;28;20116;-83
2022/08/26 06:13:53;;;;;;;11.82;7.00;;;20.80;99.90;;;;;;5055332;28;20121;-84
2022/08/26 06:16:22;;;;;;;13.77;7.25;;;21.10;99.90;;;;;;5037892;28;20037;-83
2022/08/26 06:18:49;;;;;;;16.20;7.78;;;21.10;99.90;;;;;;5055943;28;20021;-83
2022/08/26 06:21:26;;;;;;;15.13;7.25;;;21.20;99.90;;;;;;5056446;28;20096;-84
2022/08/26 06:26:39;;;;;;;21.23;7.47;;;21.30;99.90;;;;;;5065250;28;20049;-84
2022/08/26 06:29:06;;;;;;;20.45;7.03;;;21.40;99.90;;;;;;5074841;28;20021;-84
2022/08/26 06:31:34;;;;;;;12.73;7.05;;;21.60;99.90;;;;;;5060310;28;20035;-85
2022/08/26 06:34:01;;;;;;;17.77;8.02;;;21.80;99.90;;;;;;5066261;28;20036;-84
2022/08/26 06:36:31;;;;;;;13.98;8.30;;;21.80;99.90;;;;;;5078275;28;20029;-82
2022/08/26 06:39:04;;;;;;;20.27;8.70;;;22.00;99.90;;;;;;5066072;28;20045;-82
2022/08/26 06:41:32;;;;;;;16.73;7.53;;;22.30;99.90;;;;;;5078416;28;20009;-82
2022/08/26 06:43:59;;;;;;;25.17;8.60;;;22.30;99.90;;;;;;5066788;28;20009;-84
2022/08/26 06:46:26;;;;;;;16.92;7.97;;;22.40;99.90;;;;;;5075592;28;20040;-84
2022/08/26 06:48:53;;;;;;;16.83;8.43;;;22.50;99.80;;;;;;5078013;28;20088;-82
2022/08/26 06:51:21;;;;;;;20.58;8.55;;;22.60;99.40;;;;;;5073530;28;20036;-83
2022/08/26 06:53:49;;;;;;;15.30;7.45;;;22.60;99.60;;;;;;5076534;28;20056;-84
2022/08/26 06:56:17;;;;;;;15.05;7.63;;;22.70;98.90;;;;;;5074576;28;20066;-83
2022/08/26 06:58:44;;;;;;;18.13;7.55;;;22.80;99.10;;;;;;5081009;28;20028;-84
2022/08/26 07:01:29;;;;;;;15.52;7.38;;;23.00;98.40;;;;;;5072191;28;20013;-83
2022/08/26 07:03:56;;;;;;;16.83;7.80;;;23.10;98.40;;;;;;5075520;28;20025;-84
2022/08/26 07:06:23;;;;;;;16.05;7.00;;;23.20;98.10;;;;;;5069259;28;20037;-84
2022/08/26 07:08:50;;;;;;;18.63;7.25;;;23.30;98.10;;;;;;5075392;28;20386;-83
2022/08/26 07:11:17;;;;;;;17.25;7.32;;;23.30;97.60;;;;;;5073288;28;20024;-85
2022/08/26 07:13:43;;;;;;;15.60;6.25;;;23.30;97.70;;;;;;5056852;28;20048;-85
2022/08/26 07:16:12;;;;;;;16.15;7.10;;;23.70;96.80;;;;;;5069840;28;20084;-84
2022/08/26 07:18:40;;;;;;;14.53;6.90;;;23.60;96.80;;;;;;5074926;28;20574;-83
2022/08/26 07:21:09;;;;;;;17.52;7.38;;;23.60;96.80;;;;;;5065426;28;20017;-84
2022/08/26 07:23:36;;;;;;;11.30;6.27;;;23.60;96.80;;;;;;5077529;28;20212;-84
2022/08/26 07:26:08;;;;;;;12.55;6.07;;;23.80;96.80;;;;;;5075251;28;20017;-84
2022/08/26 07:28:34;;;;;;;10.90;5.60;;;24.10;95.40;;;;;;5066801;28;20017;-84
2022/08/26 07:31:08;;;;;;;9.50;5.25;;;24.30;94.90;;;;;;5077473;28;20024;-83
2022/08/26 07:33:35;;;;;;;12.23;5.85;;;24.20;95.10;;;;;;5063212;28;20045;-82
2022/08/26 07:36:01;;;;;;;11.93;6.28;;;24.50;95.00;;;;;;5068545;28;20023;-82
2022/08/26 07:38:27;;;;;;;13.57;6.18;;;24.80;94.30;;;;;;5075056;28;20483;-85
2022/08/26 07:40:53;;;;;;;14.68;6.65;;;24.80;94.50;;;;;;5056522;28;20021;-83
2022/08/26 07:43:19;;;;;;;17.02;6.95;;;25.00;94.10;;;;;;5055421;28;20029;-84
2022/08/26 07:45:45;;;;;;;14.68;7.30;;;;;;;;;;5067967;28;20071;-85
2022/08/26 07:48:11;;;;;;;15.57;6.72;;;;;;;;;;5068882;28;20089;-84
2022/08/26 07:50:37;;;;;;;16.75;7.15;;;25.20;93.40;;;;;;5067309;28;20033;-82
2022/08/26 07:53:03;;;;;;;15.57;7.00;;;25.30;93.10;;;;;;5068842;28;20061;-84
2022/08/26 07:55:29;;;;;;;14.93;7.15;;;25.50;93.20;;;;;;5056988;28;20475;-83
2022/08/26 07:57:56;;;;;;;13.00;7.15;;;;;;;;;;5076149;28;20028;-83
2022/08/26 08:00:22;;;;;;;16.13;7.35;;;;;;;;;;5075380;28;20029;-82
2022/08/26 08:02:48;;;;;;;15.80;6.70;;;;;;;;;;5060219;28;20044;-84
2022/08/26 08:05:16;;;;;;;13.55;6.38;;;26.10;91.80;;;;;;5066475;28;20033;-82
2022/08/26 08:07:43;;;;;;;12.50;6.68;;;26.30;91.10;;;;;;5069010;28;20040;-82
2022/08/26 08:10:11;;;;;;;12.32;5.97;;;26.20;90.90;;;;;;5051611;28;20020;-84
2022/08/26 08:12:37;;;;;;;8.80;5.57;;;;;;;;;;5070449;28;20067;-84
2022/08/26 08:15:03;;;;;;;10.27;5.38;;;26.50;91.10;;;;;;5069754;28;20029;-82
2022/08/26 08:17:29;;;;;;;8.75;5.15;;;;;;;;;;5063697;28;20044;-82
2022/08/26 08:19:55;;;;;;;8.13;5.05;;;26.80;90.40;;;;;;5068070;28;20052;-82
2022/08/26 08:22:22;;;;;;;10.18;4.75;;;27.00;89.60;;;;;;5073145;28;20053;-83
2022/08/26 08:24:48;;;;;;;10.10;4.68;;;;;;;;;;5048794;28;20025;-83
2022/08/26 08:27:14;;;;;;;8.40;4.80;;;;;;;;;;5070405;28;20021;-83
2022/08/26 08:29:40;;;;;;;11.13;5.78;;;;;;;;;;5070703;28;20055;-83
2022/08/26 08:32:07;;;;;;;11.18;5.28;;;;;;;;;;5074122;28;20032;-83
2022/08/26 08:34:33;;;;;;;7.80;5.18;;;;;;;;;;5076083;28;20394;-83
2022/08/26 08:36:58;;;;;;;9.95;4.78;;;27.30;87.50;;;;;;5069924;28;20031;-84
2022/08/26 08:39:25;;;;;;;10.18;4.45;;;;;;;;;;5059626;28;20108;-84
2022/08/26 08:42:30;;;;;;;8.25;4.78;;;27.30;85.80;;;;;;5061079;28;20136;-84
2022/08/26 08:45:00;;;;;;;9.48;4.88;;;27.30;86.30;;;;;;5063995;28;20035;-82
2022/08/26 08:47:41;;;;;;;9.88;4.72;;;27.50;84.90;;;;;;5047942;28;20029;-82
2022/08/26 08:50:18;;;;;;;7.80;4.60;;;27.70;84.20;;;;;;5058775;28;20033;-82
2022/08/26 08:52:51;;;;;;;9.10;4.30;;;28.00;83.60;;;;;;5076764;28;20057;-82
2022/08/26 08:55:18;;;;;;;7.95;4.50;;;;;;;;;;5068291;28;20020;-83
2022/08/26 08:58:01;;;;;;;8.48;4.55;;;28.10;83.30;;;;;;5031584;28;20039;-82
2022/08/26 09:00:36;;;;;;;9.00;4.70;;;28.20;83.50;;;;;;5042538;28;20024;-82
2022/08/26 09:03:25;;;;;;;6.93;4.55;;;28.20;83.50;;;;;;5057806;28;20035;-82
2022/08/26 09:05:52;;;;;;;;;;;28.10;82.40;;;;;;5043720;28;20032;-82
2022/08/26 09:08:23;;;;;;;7.20;3.97;;;28.20;82.10;;;;;;5050858;28;20345;-82
2022/08/26 09:10:58;;;;;;;8.32;4.20;;;28.20;81.80;;;;;;5047413;28;20024;-83
2022/08/26 09:13:24;;;;;;;14.82;4.32;;;;;;;;;;5065543;28;20024;-83
2022/08/26 09:16:01;;;;;;;8.10;4.75;;;28.20;82.70;;;;;;5060148;28;20028;-83
2022/08/26 09:18:27;;;;;;;10.68;4.68;;;;;;;;;;5059592;28;20058;-83
2022/08/26 09:21:03;;;;;;;11.20;4.93;;;28.30;81.60;;;;;;5048522;28;20024;-83
2022/08/26 09:23:31;;;;;;;10.15;4.85;;;28.30;82.50;;;;;;5054248;28;20076;-82
2022/08/26 09:26:01;;;;;;;6.20;4.07;;;28.30;81.30;;;;;;5057501;28;20027;-84
2022/08/26 09:28:30;;;;;;;7.13;4.50;;;28.40;81.60;;;;;;5077344;28;20028;-81
2022/08/26 09:31:09;;;;;;;9.63;4.57;;;28.40;81.20;;;;;;5048513;28;20037;-83
2022/08/26 09:33:34;;;;;;;16.83;6.47;;;28.50;81.90;;;;;;5062888;28;20013;-83
2022/08/26 09:36:31;;;;;;;17.02;5.93;;;28.60;82.20;;;;;;5062508;28;20041;-82
2022/08/26 09:38:57;;;;;;;14.00;6.38;;;;;;;;;;5062470;28;20031;-83
2022/08/26 09:41:30;;;;;;;13.55;5.88;;;28.40;81.60;;;;;;5065191;28;20047;-84
2022/08/26 09:44:16;;;;;;;11.32;5.90;;;28.60;82.40;;;;;;5057310;28;20021;-84
2022/08/26 09:46:55;;;;;;;16.15;7.00;;;28.50;82.20;;;;;;5061074;28;20017;-86
2022/08/26 09:49:28;;;;;;;16.50;6.15;;;28.50;82.30;;;;;;5049117;28;20134;-85
2022/08/26 09:52:21;;;;;;;18.80;6.97;;;28.60;82.20;;;;;;5057706;28;20088;-82
2022/08/26 09:55:02;;;;;;;13.35;5.97;;;28.70;81.50;;;;;;5053024;28;20032;-84
2022/08/26 09:57:34;;;;;;;12.18;6.00;;;28.90;80.40;;;;;;5056601;28;20029;-84
2022/08/26 10:00:00;;;;;;;19.65;6.22;;;;;;;;;;5058978;28;20065;-82
2022/08/26 10:02:31;;;;;;;14.35;6.57;;;29.00;79.80;;;;;;5060388;28;20025;-83
2022/08/26 10:04:59;;;;;;;11.60;5.90;;;29.20;79.40;;;;;;5059841;28;20041;-84
2022/08/26 10:07:52;;;;;;;14.48;6.70;;;29.10;79.80;;;;;;5046883;28;20517;-82
2022/08/26 10:10:34;;;;;;;13.57;6.07;;;29.20;79.00;;;;;;5066294;28;20058;-83
2022/08/26 10:13:15;;;;;;;11.77;6.13;;;29.10;78.70;;;;;;5059918;28;20025;-81
2022/08/26 10:15:51;;;;;;;13.95;6.45;;;29.10;79.20;;;;;;5059153;28;20028;-84
2022/08/26 10:18:29;;;;;;;14.02;6.63;;;29.20;79.50;;;;;;5053368;28;20484;-82
2022/08/26 10:21:30;;;;;;;20.50;6.70;;;29.30;78.80;;;;;;5062512;28;20025;-83
2022/08/26 10:24:00;;;;;;;11.70;6.68;;;29.30;78.40;;;;;;5015670;28;20041;-82
2022/08/26 10:26:52;;;;;;;13.05;6.82;;;29.20;78.40;;;;;;5055982;28;20017;-82
2022/08/26 10:29:28;;;;;;;15.40;6.20;;;29.40;79.10;;;;;;5060902;28;20036;-80
2022/08/26 10:32:09;;;;;;;14.88;6.45;;;29.40;78.70;;;;;;5053870;28;20029;-82
2022/08/26 10:34:34;;;;;;;11.10;5.18;;;29.30;79.00;;;;;;5049363;28;20398;-82
2022/08/26 10:37:09;;;;;;;11.15;5.75;;;29.50;78.50;;;;;;5059181;28;20025;-81
2022/08/26 10:39:35;;;;;;;12.25;5.72;;;;;;;;;;5054839;28;20290;-83
2022/08/26 10:42:18;;;;;;;9.00;5.10;;;29.60;78.20;;;;;;5065549;28;20489;-81
2022/08/26 10:44:46;;;;;;;11.68;4.93;;;29.60;79.20;;;;;;5057826;28;20123;-83
2022/08/26 10:47:45;;;;;;;13.07;5.72;;;29.70;78.50;;;;;;5058762;28;20025;-83
2022/08/26 10:50:11;;;;;;;14.10;6.60;;;29.80;79.10;;;;;;5032641;28;20025;-82
2022/08/26 10:53:00;;;;;;;14.65;7.05;;;29.70;78.90;;;;;;5066551;28;20283;-82
2022/08/26 10:55:39;;;;;;;9.05;6.80;;;29.80;80.00;;;;;;5049602;28;20486;-84
2022/08/26 10:58:05;;;;;;;11.95;6.05;;;;;;;;;;5064121;28;20037;-82
2022/08/26 11:04:05;;;;;;;9.30;5.78;;;29.40;78.40;;;;;;5061033;28;20031;-83
2022/08/26 11:06:33;;;;;;;8.37;5.30;;;;;;;;;;5053165;28;20021;-83
2022/08/26 11:09:03;;;;;;;13.70;6.13;;;29.30;78.10;;;;;;5059061;28;20048;-81
2022/08/26 11:11:40;;;;;;;;;;;29.30;78.10;;;;;;5059446;28;20079;-82
2022/08/26 11:14:18;;;;;;;11.65;5.22;;;29.40;77.80;;;;;;5043309;28;19947;-82
2022/08/26 11:16:47;;;;;;;11.02;5.70;;;29.50;77.70;;;;;;5048349;28;20032;-82
2022/08/26 11:19:37;;;;;;;7.53;4.97;;;29.50;77.50;;;;;;5061845;28;20029;-82
2022/08/26 11:22:05;;;;;;;7.05;5.80;;;29.60;77.10;;;;;;5053436;28;20025;-82
2022/08/26 11:24:45;;;;;;;9.88;5.55;;;29.50;77.10;;;;;;5062433;28;20032;-83
2022/08/26 11:27:24;;;;;;;13.85;5.93;;;29.60;76.60;;;;;;5068415;28;20479;-80
2022/08/26 11:30:19;;;;;;;15.02;6.70;;;29.70;76.80;;;;;;5059093;28;20024;-82
2022/08/26 11:32:51;;;;;;;11.48;5.63;;;29.80;76.30;;;;;;5039740;28;20552;-82
2022/08/26 11:35:17;;;;;;;8.77;5.85;;;;;;;;;;5056768;28;20037;-84
2022/08/26 11:37:56;;;;;;;11.57;5.82;;;29.80;76.80;;;;;;5078472;28;20032;-82
2022/08/26 11:40:29;;;;;;;12.50;5.85;;;29.80;76.80;;;;;;5066152;28;20442;-82
2022/08/26 11:42:57;;;;;;;12.13;6.40;;;29.70;77.20;;;;;;5068050;28;20025;-84
2022/08/26 11:45:31;;;;;;;9.10;6.05;;;29.70;77.30;;;;;;5063584;28;20032;-85
2022/08/26 11:47:57;;;;;;;11.95;6.43;;;;;;;;;;5062877;28;20025;-82
2022/08/26 11:50:26;;;;;;;9.70;6.60;;;29.70;77.50;;;;;;5063253;28;20040;-80
2022/08/26 11:53:00;;;;;;;9.70;6.63;;;29.70;77.70;;;;;;5073825;28;20020;-82
2022/08/26 11:55:26;;;;;;;11.80;6.93;;;;;;;;;;5064414;28;20032;-84
2022/08/26 11:57:55;;;;;;;13.35;6.95;;;29.70;78.20;;;;;;5055457;28;20069;-82
2022/08/26 12:00:34;;;;;;;15.18;7.53;;;29.70;78.60;;;;;;5060407;28;20399;-83
2022/08/26 12:03:05;;;;;;;14.50;7.90;;;29.60;78.80;;;;;;5049085;28;20025;-83
2022/08/26 12:05:37;;;;;;;10.40;7.60;;;29.50;79.30;;;;;;5050419;28;20029;-84
2022/08/26 12:08:16;;;;;;;11.05;7.85;;;29.50;80.30;;;;;;5073427;28;20045;-81
2022/08/26 12:10:43;;;;;;;12.88;7.82;;;29.40;80.00;;;;;;5077243;28;20017;-81
2022/08/26 12:13:24;;;;;;;11.82;8.65;;;29.30;80.00;;;;;;5059338;28;20021;-82
2022/08/26 12:15:59;;;;;;;12.63;9.27;;;29.20;81.00;;;;;;5053935;28;20051;-82
2022/08/26 12:18:31;;;;;;;12.63;8.90;;;29.20;81.50;;;;;;5066922;28;20052;-83
2022/08/26 12:21:18;;;;;;;15.20;9.50;;;29.20;81.90;;;;;;5060579;28;20020;-84
2022/08/26 12:23:50;;;;;;;15.57;9.77;;;29.10;81.30;;;;;;5052361;28;20040;-86
2022/08/26 12:26:19;;;;;;;13.13;9.18;;;28.90;82.20;;;;;;5074584;28;20052;-83
2022/08/26 12:28:51;;;;;;;14.52;9.73;;;28.90;81.90;;;;;;5079126;28;20008;-82
2022/08/26 12:31:24;;;;;;;14.80;9.50;;;29.00;82.00;;;;;;5062786;28;20025;-82
2022/08/26 12:33:51;;;;;;;11.80;9.85;;;;;;;;;;5060393;28;20033;-82
2022/08/26 12:36:30;;;;;;;20.92;9.98;;;29.20;82.20;;;;;;5078244;28;20493;-82
2022/08/26 12:38:56;;;;;;;18.65;10.75;;;;;;;;;;5069692;28;20092;-82
2022/08/26 12:41:45;;;;;;;14.30;10.52;;;28.90;83.10;;;;;;5061338;28;20094;-84
2022/08/26 12:44:45;;;;;;;16.88;10.95;;;28.90;83.20;;;;;;5061074;28;20025;-82
2022/08/26 12:47:25;;;;;;;12.57;10.15;;;29.00;83.40;;;;;;5067524;28;20099;-83
2022/08/26 12:50:17;;;;;;;13.02;9.95;;;29.00;83.80;;;;;;5049913;28;20029;-83
2022/08/26 12:52:56;;;;;;;19.00;10.20;;;29.10;83.60;;;;;;5052064;28;20144;-81
2022/08/26 12:55:34;;;;;;;11.75;7.70;;;29.10;83.90;;;;;;5055981;28;20027;-82
2022/08/26 12:58:15;;;;;;;11.85;9.32;;;29.10;83.40;;;;;;5066326;28;20039;-81
2022/08/26 13:00:51;;;;;;;15.35;9.40;;;29.20;83.40;;;;;;5049579;28;20029;-83
2022/08/26 13:03:42;;;;;;;16.02;10.27;;;29.20;83.10;;;;;;5047720;28;20037;-81
2022/08/26 13:06:22;;;;;;;11.10;9.38;;;29.20;83.90;;;;;;5038374;28;20056;-81
2022/08/26 13:08:50;;;;;;;13.02;9.10;;;29.30;83.50;;;;;;5044336;28;20353;-80
2022/08/26 13:11:38;;;;;;;11.32;8.88;;;29.20;82.70;;;;;;5058462;28;20045;-82
2022/08/26 13:14:09;;;;;;;9.65;8.05;;;29.20;82.60;;;;;;5042849;28;20394;-80
2022/08/26 13:16:36;;;;;;;10.15;7.78;;;29.30;82.40;;;;;;5069472;28;20033;-81
2022/08/26 13:19:08;;;;;;;11.30;7.50;;;29.20;82.80;;;;;;5049345;28;20029;-82
2022/08/26 13:21:38;;;;;;;8.85;7.25;;;29.10;82.80;;;;;;5050489;28;20017;-82
2022/08/26 13:24:10;;;;;;;7.93;6.78;;;29.20;82.70;;;;;;5060059;28;20029;-81
2022/08/26 13:26:37;;;;;;;13.40;7.07;;;;;;;;;;5060433;28;20025;-82
2022/08/26 13:29:03;;;;;;;11.13;6.90;;;;;;;;;;5060832;28;20075;-82
2022/08/26 13:31:31;;;;;;;8.60;5.97;;;29.10;82.30;;;;;;5058096;28;20032;-84
2022/08/26 13:33:57;;;;;;;9.38;5.85;;;;;;;;;;5042620;28;20064;-83